Time;durP1;ratioP1;P1;durP2;ratioP2;P2;SDS_P1;SDS_P2;PMS_P1;PMS_P2;Temp;Humidity;BMP_temperature;BMP_pressure;BME280_temperature;BME280_humidity;BME280_pressure;Samples;Min_cycle;Max_cycle;Signal;HPM_P1;HPM_P2
2023/04/26 00:01:57;;;;;;;1.17;0.90;;;20.30;68.50;;;;;;4921480;29;20498;-93
2023/04/26 00:04:24;;;;;;;2.07;0.90;;;20.30;68.60;;;;;;4938242;29;20593;-92
2023/04/26 00:06:52;;;;;;;1.10;0.87;;;20.30;69.50;;;;;;4937243;29;20447;-92
2023/04/26 00:09:19;;;;;;;1.73;0.93;;;20.30;68.70;;;;;;4938213;29;20454;-92
2023/04/26 00:11:46;;;;;;;1.20;0.80;;;20.30;68.60;;;;;;4938314;29;20505;-92
2023/04/26 00:14:14;;;;;;;1.07;0.80;;;20.30;68.50;;;;;;4937975;29;20451;-92
2023/04/26 00:16:40;;;;;;;1.60;0.90;;;20.30;69.40;;;;;;4937841;29;20459;-91
2023/04/26 00:19:09;;;;;;;1.50;0.90;;;20.40;68.70;;;;;;4938078;29;20456;-92
2023/04/26 00:21:36;;;;;;;1.53;1.00;;;20.30;68.50;;;;;;4937582;29;20454;-92
2023/04/26 00:24:05;;;;;;;1.20;0.90;;;20.30;68.60;;;;;;4921356;29;20493;-93
2023/04/26 00:29:54;;;;;;;1.10;0.87;;;20.30;68.60;;;;;;4937688;29;20818;-94
2023/04/26 00:32:20;;;;;;;1.67;0.87;;;20.20;68.60;;;;;;4937844;29;20443;-95
2023/04/26 00:34:47;;;;;;;1.77;1.10;;;20.20;68.50;;;;;;4937266;29;20454;-94
2023/04/26 00:37:15;;;;;;;1.60;1.00;;;20.20;68.50;;;;;;4937302;29;20446;-94
2023/04/26 00:39:43;;;;;;;1.37;1.27;;;20.20;68.50;;;;;;4937477;29;20446;-95
2023/04/26 00:42:10;;;;;;;1.20;0.90;;;20.20;68.50;;;;;;4937273;29;20455;-92
2023/04/26 00:44:38;;;;;;;1.07;0.83;;;20.20;68.60;;;;;;4937173;29;20534;-93
2023/04/26 00:47:06;;;;;;;1.33;0.80;;;20.20;68.50;;;;;;4937198;29;20922;-93
2023/04/26 00:49:33;;;;;;;1.10;0.80;;;20.20;68.60;;;;;;4920706;29;20439;-92
2023/04/26 00:52:00;;;;;;;1.10;0.80;;;20.20;69.40;;;;;;4937363;29;20944;-92
2023/04/26 00:54:27;;;;;;;1.20;1.00;;;20.20;68.60;;;;;;4937068;29;20486;-93
2023/04/26 00:56:55;;;;;;;1.13;1.03;;;20.20;68.50;;;;;;4937704;29;20835;-93
2023/04/26 00:59:22;;;;;;;1.20;1.00;;;20.20;68.60;;;;;;4936914;29;20807;-92
2023/04/26 01:01:49;;;;;;;1.10;0.90;;;20.20;68.50;;;;;;4937198;29;20465;-92
2023/04/26 01:04:16;;;;;;;1.13;0.80;;;20.20;68.60;;;;;;4920221;29;20573;-94
2023/04/26 01:06:44;;;;;;;1.70;1.20;;;20.20;68.60;;;;;;4937261;29;20932;-93
2023/04/26 01:09:14;;;;;;;1.40;0.90;;;20.20;68.60;;;;;;4936764;29;20500;-94
2023/04/26 01:11:42;;;;;;;1.13;0.97;;;20.20;68.70;;;;;;4936994;29;20445;-94
2023/04/26 01:14:11;;;;;;;1.30;1.00;;;20.20;68.50;;;;;;4936838;29;20461;-94
2023/04/26 01:16:38;;;;;;;1.17;0.80;;;20.20;68.60;;;;;;4937224;29;20541;-94
2023/04/26 01:19:09;;;;;;;1.13;0.80;;;20.30;68.60;;;;;;4937103;29;20792;-94
2023/04/26 01:21:36;;;;;;;1.20;0.90;;;20.20;68.60;;;;;;4920565;29;20470;-94
2023/04/26 01:24:05;;;;;;;1.10;0.80;;;20.10;68.40;;;;;;4936864;29;20580;-94
2023/04/26 01:26:32;;;;;;;1.77;1.07;;;20.20;68.60;;;;;;4936775;29;20502;-93
2023/04/26 01:28:59;;;;;;;1.77;1.17;;;20.20;68.60;;;;;;4936594;29;20482;-93
2023/04/26 01:31:26;;;;;;;1.73;0.93;;;20.10;68.50;;;;;;4936530;29;20458;-93
2023/04/26 01:33:53;;;;;;;1.00;0.80;;;20.10;68.50;;;;;;4936817;29;20456;-93
2023/04/26 01:36:19;;;;;;;1.40;0.90;;;20.10;68.50;;;;;;4937552;29;20451;-93
2023/04/26 01:38:46;;;;;;;1.37;0.90;;;20.10;68.50;;;;;;4936344;29;20457;-94
2023/04/26 01:41:15;;;;;;;1.20;0.90;;;20.10;68.50;;;;;;4936414;29;20545;-94
2023/04/26 01:43:42;;;;;;;3.23;1.00;;;20.10;68.50;;;;;;4936190;29;20478;-94
2023/04/26 01:46:10;;;;;;;1.30;0.87;;;20.10;68.60;;;;;;4936088;29;20486;-94
2023/04/26 01:48:40;;;;;;;1.67;0.87;;;20.10;68.50;;;;;;4936476;29;20458;-94
2023/04/26 01:51:07;;;;;;;1.13;0.80;;;20.10;68.50;;;;;;4936480;29;20447;-94
2023/04/26 01:53:34;;;;;;;1.27;0.90;;;20.10;68.50;;;;;;4919363;29;20451;-94
2023/04/26 01:56:01;;;;;;;2.50;1.10;;;20.10;68.50;;;;;;4936374;29;20546;-94
2023/04/26 01:58:30;;;;;;;1.20;0.90;;;20.10;68.50;;;;;;4936292;29;20517;-94
2023/04/26 02:00:57;;;;;;;2.00;0.90;;;20.10;68.40;;;;;;4936156;29;20842;-94
2023/04/26 02:03:24;;;;;;;1.27;1.07;;;20.10;68.60;;;;;;4919437;29;20487;-93
2023/04/26 02:05:50;;;;;;;1.20;0.90;;;20.10;68.50;;;;;;4936017;29;20495;-94
2023/04/26 02:08:17;;;;;;;1.37;0.90;;;20.10;68.50;;;;;;4919339;29;20821;-94
2023/04/26 02:10:44;;;;;;;1.20;0.90;;;20.10;68.50;;;;;;4936481;29;20553;-94
2023/04/26 02:13:11;;;;;;;1.10;1.00;;;20.10;68.50;;;;;;4936126;29;20446;-93
2023/04/26 02:15:39;;;;;;;1.20;0.93;;;20.10;68.50;;;;;;4936434;29;20456;-94
2023/04/26 02:18:06;;;;;;;1.20;1.10;;;20.10;68.50;;;;;;4936359;29;20446;-93
2023/04/26 02:20:33;;;;;;;1.33;0.90;;;20.20;68.70;;;;;;4936175;29;20520;-94
2023/04/26 02:23:00;;;;;;;1.10;0.80;;;20.10;68.50;;;;;;4936387;29;20450;-94
2023/04/26 02:25:26;;;;;;;1.80;1.10;;;20.10;68.60;;;;;;4935837;29;20593;-94
2023/04/26 02:27:53;;;;;;;1.10;0.90;;;20.10;68.50;;;;;;4936099;29;20461;-94
2023/04/26 02:30:20;;;;;;;1.10;0.90;;;20.10;68.50;;;;;;4920986;29;20445;-93
2023/04/26 02:36:10;;;;;;;1.43;0.90;;;20.00;68.50;;;;;;4939657;29;20883;-94
2023/04/26 02:38:38;;;;;;;2.03;1.07;;;20.00;68.60;;;;;;4922790;29;20503;-93
2023/04/26 02:41:05;;;;;;;1.10;0.90;;;20.00;68.50;;;;;;4939543;29;20443;-94
2023/04/26 02:43:32;;;;;;;1.10;0.90;;;20.00;68.50;;;;;;4939305;29;20815;-93
2023/04/26 02:49:20;;;;;;;1.30;1.00;;;20.00;68.40;;;;;;4939505;29;20908;-94
2023/04/26 02:51:48;;;;;;;1.10;0.90;;;20.00;68.60;;;;;;4939426;29;20470;-93
2023/04/26 02:54:16;;;;;;;1.37;0.90;;;20.00;68.50;;;;;;4939250;29;20450;-93
2023/04/26 02:56:43;;;;;;;2.00;1.00;;;20.00;68.50;;;;;;4939123;29;20997;-94
2023/04/26 02:59:09;;;;;;;1.13;0.90;;;20.00;68.50;;;;;;4939319;29;20450;-94
2023/04/26 03:01:36;;;;;;;1.30;1.00;;;20.00;68.50;;;;;;4939473;29;20891;-94
2023/04/26 03:04:03;;;;;;;1.30;0.93;;;20.10;68.60;;;;;;4939119;29;20483;-94
2023/04/26 03:06:30;;;;;;;1.60;1.30;;;20.00;68.50;;;;;;4939428;29;20451;-94
2023/04/26 03:08:58;;;;;;;1.17;0.80;;;20.00;68.40;;;;;;4938985;29;20457;-93
2023/04/26 03:11:25;;;;;;;1.20;0.90;;;20.00;68.40;;;;;;4939305;29;20443;-93
2023/04/26 03:13:52;;;;;;;1.40;1.20;;;19.90;68.30;;;;;;4939382;29;20462;-94
2023/04/26 03:16:19;;;;;;;1.53;0.93;;;19.90;68.30;;;;;;4938947;29;20453;-94
2023/04/26 03:18:46;;;;;;;1.30;0.97;;;20.00;68.50;;;;;;4938766;29;20525;-94
2023/04/26 03:21:13;;;;;;;1.80;1.10;;;19.90;68.30;;;;;;4939261;29;20451;-93
2023/04/26 03:23:40;;;;;;;1.67;1.17;;;20.00;68.40;;;;;;4939165;29;20443;-94
2023/04/26 03:26:08;;;;;;;1.20;0.93;;;19.90;68.30;;;;;;4938782;29;20486;-94
2023/04/26 03:28:35;;;;;;;1.43;0.90;;;19.90;68.30;;;;;;4938731;29;20455;-93
2023/04/26 03:31:02;;;;;;;1.23;0.90;;;19.90;68.30;;;;;;4922125;29;20457;-93
2023/04/26 03:33:30;;;;;;;1.10;0.90;;;19.90;69.20;;;;;;4938631;29;20451;-93
2023/04/26 03:35:57;;;;;;;1.23;1.07;;;19.90;68.40;;;;;;4938967;29;20790;-93
2023/04/26 03:38:24;;;;;;;1.43;1.10;;;19.90;68.30;;;;;;4938601;29;20445;-93
2023/04/26 03:40:51;;;;;;;1.30;0.83;;;19.90;68.30;;;;;;4938592;29;20453;-94
2023/04/26 03:43:20;;;;;;;1.60;0.90;;;19.90;68.30;;;;;;4938795;29;20461;-94
2023/04/26 03:45:48;;;;;;;1.30;1.07;;;19.90;68.40;;;;;;4921116;29;21023;-93
2023/04/26 03:48:15;;;;;;;1.30;1.10;;;19.90;68.30;;;;;;4938470;29;20457;-93
2023/04/26 03:50:43;;;;;;;1.80;1.30;;;19.90;68.20;;;;;;4938915;29;20934;-93
2023/04/26 03:53:11;;;;;;;1.20;0.90;;;19.90;68.40;;;;;;4938461;29;20447;-93
2023/04/26 03:55:38;;;;;;;2.43;1.00;;;19.90;68.30;;;;;;4938841;29;20939;-94
2023/04/26 03:58:06;;;;;;;1.93;1.10;;;20.00;69.30;;;;;;4938287;29;20447;-94
2023/04/26 04:00:35;;;;;;;1.10;0.90;;;19.90;68.40;;;;;;4938006;29;20466;-94
2023/04/26 04:03:01;;;;;;;1.30;1.00;;;19.90;68.50;;;;;;4937894;29;20453;-94
2023/04/26 04:05:28;;;;;;;1.10;0.90;;;20.00;68.50;;;;;;4920953;29;20478;-94
2023/04/26 04:07:56;;;;;;;1.27;0.90;;;19.90;68.40;;;;;;4938131;29;20456;-93
2023/04/26 04:10:23;;;;;;;1.50;1.10;;;20.00;68.50;;;;;;4921348;29;20461;-94
2023/04/26 04:12:50;;;;;;;1.77;1.23;;;19.90;68.40;;;;;;4937926;29;20455;-94
2023/04/26 04:15:17;;;;;;;1.27;1.17;;;19.90;68.40;;;;;;4937819;29;20815;-94
2023/04/26 04:17:45;;;;;;;1.17;1.03;;;19.90;68.50;;;;;;4938136;29;20575;-93
2023/04/26 04:20:13;;;;;;;1.40;1.13;;;19.90;68.50;;;;;;4920812;29;20514;-92
2023/04/26 04:22:40;;;;;;;1.23;1.00;;;19.90;68.40;;;;;;4938334;29;20850;-93
2023/04/26 04:25:09;;;;;;;1.67;1.17;;;19.80;68.30;;;;;;4938387;29;20989;-93
2023/04/26 04:27:37;;;;;;;1.80;1.10;;;19.80;68.40;;;;;;4938183;29;20447;-93
2023/04/26 04:30:07;;;;;;;2.17;1.10;;;19.90;68.50;;;;;;4937789;29;20447;-93
2023/04/26 04:32:34;;;;;;;2.47;1.33;;;19.90;68.50;;;;;;4937477;29;20516;-93
2023/04/26 04:35:04;;;;;;;1.30;1.10;;;19.80;68.40;;;;;;4937251;29;20498;-93
2023/04/26 04:37:32;;;;;;;1.10;0.93;;;19.90;68.50;;;;;;4905036;29;20451;-93
2023/04/26 04:39:59;;;;;;;1.37;0.90;;;19.90;69.50;;;;;;4937620;29;20477;-93
2023/04/26 04:42:27;;;;;;;1.73;1.03;;;19.80;68.50;;;;;;4937524;29;20519;-93
2023/04/26 04:44:54;;;;;;;1.40;1.20;;;19.80;68.70;;;;;;4936844;29;20573;-94
2023/04/26 04:47:21;;;;;;;2.83;1.27;;;19.80;68.60;;;;;;4937233;29;20465;-93
2023/04/26 04:49:48;;;;;;;1.10;0.90;;;19.90;68.80;;;;;;4920054;29;20454;-93
2023/04/26 04:52:18;;;;;;;1.73;1.00;;;19.90;68.80;;;;;;4936563;29;20486;-93
2023/04/26 04:54:45;;;;;;;1.40;1.20;;;19.90;68.80;;;;;;4936940;29;20562;-93
2023/04/26 04:57:12;;;;;;;1.30;1.00;;;19.90;68.80;;;;;;4920211;29;20508;-93
2023/04/26 04:59:39;;;;;;;1.33;1.00;;;19.80;68.80;;;;;;4920302;29;20515;-93
2023/04/26 05:02:06;;;;;;;1.50;1.07;;;19.80;68.90;;;;;;4920391;29;20960;-93
2023/04/26 05:04:33;;;;;;;1.40;1.10;;;19.90;68.90;;;;;;4936933;29;20454;-93
2023/04/26 05:07:00;;;;;;;1.20;1.10;;;19.80;68.90;;;;;;4936698;29;20455;-94
2023/04/26 05:09:29;;;;;;;2.27;1.13;;;19.90;69.00;;;;;;4936830;29;20462;-93
2023/04/26 05:11:55;;;;;;;1.20;1.03;;;19.80;68.90;;;;;;4936658;29;20946;-94
2023/04/26 05:14:22;;;;;;;1.47;1.20;;;19.80;68.90;;;;;;4936977;29;20541;-93
2023/04/26 05:16:49;;;;;;;1.73;1.13;;;19.80;69.00;;;;;;4936803;29;20447;-93
2023/04/26 05:19:16;;;;;;;1.20;1.07;;;19.80;69.00;;;;;;4936833;29;20474;-94
2023/04/26 05:21:43;;;;;;;2.17;1.60;;;19.80;69.10;;;;;;4937193;29;20498;-93
2023/04/26 05:24:10;;;;;;;1.30;1.13;;;19.80;68.80;;;;;;4936906;29;20455;-92
2023/04/26 05:26:39;;;;;;;1.20;0.90;;;19.80;68.80;;;;;;4937405;29;20789;-93
2023/04/26 05:29:06;;;;;;;1.40;1.17;;;19.80;68.90;;;;;;4937677;29;20462;-92
2023/04/26 05:31:32;;;;;;;1.37;1.10;;;19.90;69.10;;;;;;4940305;29;20459;-91
2023/04/26 05:33:59;;;;;;;1.40;1.20;;;19.80;69.00;;;;;;4940467;29;20457;-89
2023/04/26 05:36:27;;;;;;;1.83;1.50;;;19.80;69.00;;;;;;4938285;29;20474;-89
2023/04/26 05:38:53;;;;;;;1.50;1.10;;;19.80;69.10;;;;;;4937703;29;20471;-88
2023/04/26 05:41:20;;;;;;;1.20;1.10;;;19.90;68.70;;;;;;4937549;29;20939;-93
2023/04/26 05:43:49;;;;;;;1.40;1.27;;;19.90;68.60;;;;;;4936247;29;20451;-93
2023/04/26 05:46:16;;;;;;;1.80;1.33;;;19.90;68.80;;;;;;4937097;29;20494;-94
2023/04/26 05:48:42;;;;;;;1.80;1.30;;;19.90;68.60;;;;;;4937613;29;20452;-94
2023/04/26 05:51:18;;;;;;;1.37;1.27;;;19.90;68.60;;;;;;4938930;29;20550;-96
2023/04/26 05:53:46;;;;;;;1.20;1.10;;;19.90;68.80;;;;;;4936942;29;20446;-95
2023/04/26 05:56:13;;;;;;;1.80;1.47;;;19.90;69.10;;;;;;4936907;29;20456;-94
2023/04/26 05:58:40;;;;;;;1.67;1.33;;;20.00;68.90;;;;;;4943754;29;20451;-89
2023/04/26 06:01:08;;;;;;;1.40;1.07;;;19.90;68.90;;;;;;4953593;29;20457;-91
2023/04/26 06:03:36;;;;;;;1.50;1.20;;;19.90;69.00;;;;;;4950919;29;20446;-88
2023/04/26 06:06:02;;;;;;;1.60;1.43;;;19.90;68.80;;;;;;4960631;29;20550;-85
2023/04/26 06:08:29;;;;;;;2.03;1.50;;;19.90;69.00;;;;;;4970538;23;20480;-85
2023/04/26 06:10:59;;;;;;;1.43;1.33;;;19.90;69.10;;;;;;4947463;29;20501;-92
2023/04/26 06:13:26;;;;;;;1.40;1.30;;;20.00;69.20;;;;;;4940703;29;20446;-91
2023/04/26 06:15:53;;;;;;;1.30;1.20;;;19.90;69.00;;;;;;4939982;29;20445;-93
2023/04/26 06:18:21;;;;;;;1.77;1.30;;;19.90;69.20;;;;;;4940750;29;20453;-94
2023/04/26 06:20:48;;;;;;;1.80;1.10;;;19.90;69.20;;;;;;4940766;29;20492;-92
2023/04/26 06:23:15;;;;;;;3.27;1.67;;;19.90;69.30;;;;;;4940311;29;20944;-90
2023/04/26 06:25:43;;;;;;;2.20;2.00;;;20.00;69.50;;;;;;4942080;29;20569;-93
2023/04/26 06:28:10;;;;;;;1.53;1.40;;;19.90;69.20;;;;;;4940459;29;20450;-90
2023/04/26 06:30:37;;;;;;;3.27;1.50;;;19.90;68.40;;;;;;4940721;29;20473;-88
2023/04/26 06:36:31;;;;;;;3.57;2.13;;;20.00;68.60;;;;;;4944852;29;20437;-86
2023/04/26 06:38:58;;;;;;;3.90;2.23;;;20.10;69.20;;;;;;4944009;29;20447;-92
2023/04/26 06:41:25;;;;;;;2.40;1.53;;;20.00;69.00;;;;;;4941484;29;20455;-84
2023/04/26 06:43:52;;;;;;;2.90;1.87;;;20.00;69.10;;;;;;4940549;29;20460;-85
2023/04/26 06:46:19;;;;;;;2.97;1.73;;;20.00;69.10;;;;;;4940595;29;20485;-86
2023/04/26 06:48:46;;;;;;;4.23;1.90;;;20.00;69.10;;;;;;4942861;29;20933;-85
2023/04/26 06:51:12;;;;;;;2.30;2.00;;;20.00;69.10;;;;;;4944293;29;20457;-89
2023/04/26 06:53:41;;;;;;;3.30;1.97;;;20.00;69.00;;;;;;4944388;29;20477;-88
2023/04/26 06:56:09;;;;;;;5.87;2.37;;;20.00;68.90;;;;;;4949105;29;20454;-93
2023/04/26 06:58:35;;;;;;;2.00;1.80;;;20.10;68.80;;;;;;4947546;29;20474;-84
2023/04/26 07:01:02;;;;;;;2.83;2.03;;;20.20;69.00;;;;;;4945079;29;20448;-85
2023/04/26 07:03:29;;;;;;;4.90;2.40;;;20.10;68.90;;;;;;4942410;29;20450;-91
2023/04/26 07:05:56;;;;;;;2.50;1.90;;;20.10;68.80;;;;;;4939514;29;20486;-93
2023/04/26 07:08:23;;;;;;;2.47;2.00;;;20.10;68.40;;;;;;4941866;29;20508;-87
2023/04/26 07:10:51;;;;;;;2.40;1.97;;;20.10;67.60;;;;;;4955463;29;20446;-84
2023/04/26 07:13:18;;;;;;;4.57;2.00;;;20.10;68.50;;;;;;4955705;29;20494;-84
2023/04/26 07:15:45;;;;;;;2.43;2.00;;;20.10;69.50;;;;;;4952834;29;20454;-86
2023/04/26 07:18:11;;;;;;;2.63;2.20;;;20.20;68.80;;;;;;4954839;29;20448;-84
2023/04/26 07:20:38;;;;;;;2.93;1.97;;;20.20;68.80;;;;;;4948552;29;20471;-92
2023/04/26 07:23:05;;;;;;;6.27;1.93;;;20.20;68.80;;;;;;4952351;29;20450;-84
2023/04/26 07:25:32;;;;;;;11.33;3.87;;;20.20;68.70;;;;;;4957587;29;20482;-84
2023/04/26 07:28:00;;;;;;;2.20;2.00;;;20.20;68.60;;;;;;4956302;29;20453;-83
2023/04/26 07:30:27;;;;;;;2.93;2.03;;;20.20;69.50;;;;;;4957732;29;20510;-83
2023/04/26 07:32:53;;;;;;;3.33;3.00;;;20.30;68.80;;;;;;4957850;29;20443;-84
2023/04/26 07:35:20;;;;;;;3.63;2.10;;;20.30;68.80;;;;;;4958296;29;20453;-84
2023/04/26 07:37:47;;;;;;;4.63;2.07;;;20.30;68.80;;;;;;4952398;29;20485;-83
2023/04/26 07:40:14;;;;;;;3.97;2.23;;;20.30;69.70;;;;;;4954586;29;20503;-84
2023/04/26 07:42:41;;;;;;;2.33;1.83;;;20.30;68.80;;;;;;4953287;29;20538;-84
2023/04/26 07:45:10;;;;;;;2.20;1.97;;;20.30;68.80;;;;;;4956374;29;20506;-84
2023/04/26 07:47:37;;;;;;;9.27;1.90;;;20.30;68.90;;;;;;4943515;29;20454;-83
2023/04/26 07:50:05;;;;;;;2.33;1.90;;;20.30;69.70;;;;;;4943043;29;20472;-83
2023/04/26 07:52:31;;;;;;;5.57;2.37;;;20.30;68.90;;;;;;4945311;29;20449;-89
2023/04/26 07:54:58;;;;;;;2.57;1.63;;;20.30;68.50;;;;;;4944123;29;20469;-92
2023/04/26 07:57:25;;;;;;;3.93;2.07;;;20.30;67.60;;;;;;4937815;29;20926;-90
2023/04/26 07:59:52;;;;;;;8.60;3.70;;;20.30;68.70;;;;;;4922193;29;20455;-91
2023/04/26 08:02:20;;;;;;;3.20;1.87;;;20.30;68.70;;;;;;4938106;29;20447;-90
2023/04/26 08:04:51;;;;;;;3.80;2.10;;;20.30;69.70;;;;;;4937656;29;20458;-90
2023/04/26 08:07:18;;;;;;;6.40;2.03;;;20.30;70.00;;;;;;4937736;29;21068;-90
2023/04/26 08:09:45;;;;;;;5.83;2.20;;;20.40;70.30;;;;;;4920643;29;20481;-94
2023/04/26 08:12:13;;;;;;;2.27;1.50;;;20.40;70.40;;;;;;4939758;29;20545;-93
2023/04/26 08:14:40;;;;;;;5.20;2.50;;;20.40;71.20;;;;;;4938146;29;20489;-93
2023/04/26 08:17:08;;;;;;;3.63;2.40;;;20.50;70.60;;;;;;4938187;29;20505;-93
2023/04/26 08:19:38;;;;;;;4.37;2.40;;;20.40;70.60;;;;;;4939340;29;20478;-90
2023/04/26 08:22:06;;;;;;;2.97;2.37;;;20.50;70.50;;;;;;4938570;29;20961;-90
2023/04/26 08:24:33;;;;;;;3.13;2.27;;;20.40;70.50;;;;;;4938351;29;20448;-90
2023/04/26 08:27:00;;;;;;;7.60;2.33;;;20.40;70.50;;;;;;4937408;29;20542;-91
2023/04/26 08:29:27;;;;;;;4.63;2.93;;;20.50;70.70;;;;;;4938195;29;20450;-91
2023/04/26 08:31:55;;;;;;;7.33;2.47;;;20.40;70.70;;;;;;4937878;29;20485;-90
2023/04/26 08:34:22;;;;;;;3.80;2.37;;;20.50;71.10;;;;;;4938020;29;20458;-90
2023/04/26 08:36:51;;;;;;;5.00;2.10;;;20.50;71.30;;;;;;4938088;29;20454;-90
2023/04/26 08:39:17;;;;;;;4.00;2.23;;;20.50;71.30;;;;;;4937939;29;20447;-90
2023/04/26 08:41:53;;;;;;;3.10;1.80;;;20.50;71.40;;;;;;4937598;29;20541;-90
2023/04/26 08:44:24;;;;;;;3.03;1.83;;;20.50;71.60;;;;;;4938037;29;20430;-91
2023/04/26 08:47:01;;;;;;;6.23;2.13;;;20.50;71.40;;;;;;4937518;29;20489;-90
2023/04/26 08:49:39;;;;;;;3.33;2.07;;;20.50;71.50;;;;;;4905857;29;20470;-92
2023/04/26 08:52:11;;;;;;;5.87;2.40;;;20.50;71.50;;;;;;4940364;29;20447;-90
2023/04/26 08:54:39;;;;;;;5.20;2.50;;;20.50;71.80;;;;;;4940481;29;20457;-90
2023/04/26 08:57:10;;;;;;;5.00;1.60;;;20.50;71.70;;;;;;4941265;29;20530;-96
2023/04/26 08:59:38;;;;;;;1.90;1.60;;;20.50;71.40;;;;;;4940276;29;20427;-93
2023/04/26 09:02:06;;;;;;;2.50;1.93;;;20.40;67.10;;;;;;4938106;29;20451;-93
2023/04/26 09:04:33;;;;;;;2.77;1.20;;;20.30;65.80;;;;;;4938204;29;20493;-94
2023/04/26 09:07:06;;;;;;;5.30;1.40;;;20.40;65.40;;;;;;4940807;29;20527;-92
2023/04/26 09:09:37;;;;;;;2.90;1.93;;;20.40;65.70;;;;;;4947019;29;20518;-96
2023/04/26 09:12:06;;;;;;;2.77;2.00;;;20.40;66.50;;;;;;4948865;29;20478;-94
2023/04/26 09:14:33;;;;;;;1.77;1.57;;;20.40;65.90;;;;;;4941653;29;20447;-91
2023/04/26 09:17:00;;;;;;;2.63;1.40;;;20.40;66.40;;;;;;4941059;29;20942;-93
2023/04/26 09:19:37;;;;;;;1.97;1.57;;;20.40;66.20;;;;;;4937162;29;20475;-89
2023/04/26 09:22:05;;;;;;;4.13;1.97;;;20.40;66.90;;;;;;4936821;29;20460;-90
2023/04/26 09:24:47;;;;;;;1.80;1.67;;;20.40;68.30;;;;;;4936496;29;20956;-89
2023/04/26 09:27:15;;;;;;;2.70;1.67;;;20.50;68.80;;;;;;4937700;29;20490;-91
2023/04/26 09:29:58;;;;;;;2.60;1.87;;;20.40;68.90;;;;;;4936856;29;20459;-90
2023/04/26 09:32:26;;;;;;;5.30;1.80;;;20.40;68.80;;;;;;4936782;29;20534;-90
2023/04/26 09:34:53;;;;;;;3.23;2.10;;;20.50;69.10;;;;;;4936509;29;20475;-91
2023/04/26 09:37:20;;;;;;;3.30;1.60;;;20.40;69.20;;;;;;4919869;29;20453;-91
2023/04/26 09:39:48;;;;;;;2.57;1.53;;;20.40;69.40;;;;;;4936321;29;20461;-91
2023/04/26 09:42:18;;;;;;;3.17;2.03;;;20.40;69.50;;;;;;4941664;29;20435;-92
2023/04/26 09:44:45;;;;;;;1.83;1.60;;;20.40;69.50;;;;;;4944393;29;20500;-90
2023/04/26 09:47:11;;;;;;;1.70;1.60;;;20.40;69.50;;;;;;4935083;29;20842;-90
2023/04/26 09:49:47;;;;;;;2.80;1.53;;;20.40;69.60;;;;;;4957538;28;20521;-90
2023/04/26 09:52:14;;;;;;;3.83;1.83;;;20.40;69.70;;;;;;4956024;29;20445;-89
2023/04/26 09:54:43;;;;;;;2.43;1.50;;;20.40;69.70;;;;;;4955174;29;20450;-90
2023/04/26 09:57:13;;;;;;;3.00;1.70;;;20.50;70.00;;;;;;4955757;29;20454;-90
2023/04/26 09:59:41;;;;;;;1.63;1.30;;;20.40;69.70;;;;;;4922295;29;20514;-89
2023/04/26 10:02:19;;;;;;;4.50;2.37;;;20.40;70.80;;;;;;4955399;29;20465;-89
2023/04/26 10:04:47;;;;;;;2.10;1.83;;;20.50;70.90;;;;;;4955483;29;20426;-90
2023/04/26 10:07:15;;;;;;;3.30;2.00;;;20.50;70.40;;;;;;4955799;29;20497;-90
2023/04/26 10:09:42;;;;;;;3.07;1.67;;;20.50;70.00;;;;;;4955276;29;20909;-90
2023/04/26 10:12:10;;;;;;;2.43;1.60;;;20.50;70.00;;;;;;4955452;29;20442;-90
2023/04/26 10:14:39;;;;;;;2.57;1.40;;;20.50;70.00;;;;;;4955310;29;20554;-90
2023/04/26 10:17:06;;;;;;;1.93;1.60;;;20.50;69.90;;;;;;4955198;29;20449;-90
2023/04/26 10:19:34;;;;;;;4.50;1.70;;;20.50;70.00;;;;;;4955263;28;20474;-90
2023/04/26 10:22:05;;;;;;;2.13;1.50;;;20.50;70.00;;;;;;4959157;29;20481;-91
2023/04/26 10:24:34;;;;;;;3.40;1.60;;;20.50;70.00;;;;;;4956019;29;20528;-90
2023/04/26 10:27:02;;;;;;;1.60;1.23;;;20.60;70.10;;;;;;4955352;29;20492;-91
2023/04/26 10:30:03;;;;;;;1.97;1.63;;;20.50;70.00;;;;;;4955400;29;20462;-90
2023/04/26 10:32:53;;;;;;;3.40;1.90;;;20.50;70.00;;;;;;4955508;29;20453;-92
2023/04/26 10:35:22;;;;;;;2.80;1.47;;;20.50;70.00;;;;;;4955153;29;20461;-88
2023/04/26 10:38:10;;;;;;;3.17;1.97;;;20.50;69.90;;;;;;4955169;29;20469;-91
2023/04/26 10:40:39;;;;;;;2.87;2.10;;;20.50;69.70;;;;;;4955284;29;20442;-92
2023/04/26 10:47:05;;;;;;;1.50;1.40;;;20.50;70.00;;;;;;4955612;29;20460;-95
2023/04/26 10:49:44;;;;;;;2.20;1.40;;;20.40;70.10;;;;;;4937939;28;20479;-90
2023/04/26 10:52:15;;;;;;;2.33;1.47;;;20.40;70.40;;;;;;4957459;29;20450;-91
2023/04/26 10:54:53;;;;;;;2.97;2.23;;;20.40;71.00;;;;;;4958370;29;20501;-91
2023/04/26 10:57:21;;;;;;;4.23;1.60;;;20.50;70.80;;;;;;4940851;29;20440;-91
2023/04/26 11:00:20;;;;;;;1.77;1.20;;;20.50;70.20;;;;;;4958721;29;20449;-91
2023/04/26 11:02:54;;;;;;;1.90;1.40;;;20.50;69.80;;;;;;4958494;29;20941;-91
2023/04/26 11:05:45;;;;;;;2.63;1.57;;;20.50;70.00;;;;;;4958116;29;20450;-89
2023/04/26 11:08:18;;;;;;;1.87;1.70;;;20.50;69.80;;;;;;4957490;29;20497;-90
2023/04/26 11:10:50;;;;;;;3.40;1.27;;;20.50;70.10;;;;;;4958061;29;20933;-90
2023/04/26 11:13:18;;;;;;;1.60;1.50;;;20.50;70.00;;;;;;4958282;29;20446;-89
2023/04/26 11:15:45;;;;;;;3.00;1.30;;;20.50;69.70;;;;;;4941015;29;20446;-90
2023/04/26 11:18:11;;;;;;;2.20;1.50;;;20.60;70.00;;;;;;4940918;29;20762;-90
2023/04/26 11:20:38;;;;;;;3.83;1.50;;;20.50;69.90;;;;;;4957689;28;20457;-90
2023/04/26 11:23:08;;;;;;;3.67;2.10;;;20.50;70.00;;;;;;4957574;29;20463;-85
2023/04/26 11:25:39;;;;;;;2.13;1.57;;;20.50;69.90;;;;;;4960383;29;20448;-94
2023/04/26 11:28:06;;;;;;;4.60;1.40;;;20.50;68.70;;;;;;4957574;29;20508;-89
2023/04/26 11:30:33;;;;;;;3.30;1.20;;;20.50;69.50;;;;;;4958731;29;20454;-89
2023/04/26 11:33:02;;;;;;;3.70;1.70;;;20.50;69.60;;;;;;4957009;29;20813;-90
2023/04/26 11:35:29;;;;;;;3.20;1.57;;;20.50;69.70;;;;;;4955786;29;20818;-89
2023/04/26 11:37:59;;;;;;;2.17;1.33;;;20.50;69.20;;;;;;4955906;29;20957;-90
2023/04/26 11:40:29;;;;;;;2.30;1.33;;;20.60;69.50;;;;;;4956713;29;20438;-92
2023/04/26 11:43:02;;;;;;;2.80;1.40;;;20.60;68.90;;;;;;4938335;29;20446;-92
2023/04/26 11:45:29;;;;;;;1.43;1.30;;;20.60;68.50;;;;;;4938609;29;20937;-92
2023/04/26 11:47:57;;;;;;;1.80;1.60;;;20.50;69.60;;;;;;4937970;29;20501;-91
2023/04/26 11:50:25;;;;;;;2.17;1.50;;;20.50;70.00;;;;;;4921112;29;20825;-93
2023/04/26 11:52:55;;;;;;;4.67;1.30;;;20.50;69.70;;;;;;4938157;29;20537;-92
2023/04/26 11:55:27;;;;;;;2.53;1.40;;;20.60;70.10;;;;;;4937911;29;20827;-92
2023/04/26 11:57:54;;;;;;;1.53;1.43;;;20.60;70.10;;;;;;4937498;29;20454;-92
2023/04/26 12:00:24;;;;;;;2.73;1.70;;;20.60;70.00;;;;;;4937889;29;20479;-91
2023/04/26 12:02:52;;;;;;;2.43;1.30;;;20.70;70.70;;;;;;4937291;29;20450;-92
2023/04/26 12:05:23;;;;;;;3.13;1.60;;;20.70;70.60;;;;;;4938032;29;20909;-92
2023/04/26 12:07:52;;;;;;;3.57;1.83;;;20.80;70.80;;;;;;4937528;29;20853;-92
2023/04/26 12:10:25;;;;;;;3.30;1.50;;;20.80;70.80;;;;;;4920802;29;20450;-92
2023/04/26 12:12:53;;;;;;;5.10;1.70;;;20.80;70.50;;;;;;4937550;29;20490;-92
2023/04/26 12:15:25;;;;;;;1.80;1.40;;;20.90;70.40;;;;;;4937467;29;20946;-92
2023/04/26 12:17:57;;;;;;;3.27;1.63;;;20.90;70.40;;;;;;4938339;29;20872;-92
2023/04/26 12:20:28;;;;;;;3.10;1.57;;;20.90;70.30;;;;;;4938027;29;20518;-92
2023/04/26 12:23:10;;;;;;;1.70;1.40;;;20.90;70.30;;;;;;4938350;29;20494;-92
2023/04/26 12:26:29;;;;;;;;;;;;;;;;;;;;;
2023/04/26 12:28:56;;;;;;;7.37;1.40;;;20.90;70.30;;;;;;4899437;29;20485;-92
2023/04/26 12:31:25;;;;;;;5.67;2.17;;;20.90;70.30;;;;;;4957845;29;20478;-93
2023/04/26 12:33:51;;;;;;;3.60;2.03;;;20.90;70.10;;;;;;4956675;29;20822;-93
2023/04/26 12:36:18;;;;;;;4.20;2.40;;;20.90;70.10;;;;;;4956517;29;20533;-93
2023/04/26 12:38:45;;;;;;;3.27;2.20;;;20.80;70.20;;;;;;4956583;29;20529;-93
2023/04/26 12:41:12;;;;;;;4.03;2.27;;;20.80;70.30;;;;;;4956614;29;20446;-86
2023/04/26 12:46:45;;;;;;;10.77;5.83;;;20.70;70.00;;;;;;4923389;29;20526;-90
2023/04/26 12:49:13;;;;;;;15.10;7.57;;;20.90;70.40;;;;;;4918352;29;21014;-92
2023/04/26 12:51:39;;;;;;;12.67;7.10;;;20.90;69.60;;;;;;4918432;29;20455;-92
2023/04/26 12:54:07;;;;;;;19.33;9.90;;;20.90;69.50;;;;;;4919007;29;20878;-95
2023/04/26 12:56:36;;;;;;;20.23;10.90;;;20.90;69.20;;;;;;4920688;29;20951;-95
2023/04/26 12:59:04;;;;;;;29.87;14.63;;;20.80;69.70;;;;;;4937889;29;20441;-92
2023/04/26 13:01:31;;;;;;;33.40;17.80;;;20.80;69.00;;;;;;4947050;23;20478;-91
2023/04/26 13:04:03;;;;;;;27.63;15.60;;;20.80;69.20;;;;;;4934766;29;21044;-85
2023/04/26 13:06:31;;;;;;;28.07;15.43;;;20.80;69.40;;;;;;4942902;29;20542;-86
2023/04/26 13:08:58;;;;;;;27.37;14.90;;;20.90;69.80;;;;;;4955424;29;20490;-87
2023/04/26 13:11:24;;;;;;;32.07;16.30;;;20.90;70.00;;;;;;4955347;29;20442;-85
2023/04/26 13:13:51;;;;;;;28.87;14.37;;;20.90;70.00;;;;;;4954495;28;20461;-86
2023/04/26 13:16:18;;;;;;;30.07;13.63;;;20.90;70.00;;;;;;4952222;29;20449;-85